Time;durP1;ratioP1;P1;durP2;ratioP2;P2;SDS_P1;SDS_P2;PMS_P1;PMS_P2;Temp;Humidity;BMP_temperature;BMP_pressure;BME280_temperature;BME280_humidity;BME280_pressure;Samples;Min_cycle;Max_cycle;Signal;HPM_P1;HPM_P2
2022/07/01 00:01:47;;;;;;;5.40;4.20;;;;;;;;;;5012299;28;20497;-78
2022/07/01 00:04:15;;;;;;;5.72;3.90;;;;;;;;;;5014004;28;20049;-80
2022/07/01 00:06:42;;;;;;;5.28;3.55;;;;;;;;;;4993771;28;20520;-78
2022/07/01 00:09:10;;;;;;;5.35;3.90;;;;;;;;;;5017746;28;20037;-78
2022/07/01 00:11:37;;;;;;;8.07;4.25;;;;;;;;;;5011248;28;20055;-81
2022/07/01 00:14:05;;;;;;;5.90;3.55;;;;;;;;;;5013189;28;20069;-78
2022/07/01 00:16:32;;;;;;;6.22;3.70;;;;;;;;;;5026901;28;20518;-79
2022/07/01 00:19:00;;;;;;;5.95;3.90;;;;;;;;;;5027446;28;20049;-78
2022/07/01 00:21:28;;;;;;;4.32;3.65;;;;;;;;;;5012578;28;20050;-77
2022/07/01 00:23:55;;;;;;;7.70;4.07;;;;;;;;;;5012501;28;20053;-78
2022/07/01 00:26:23;;;;;;;4.65;3.60;;;;;;;;;;5009344;28;20057;-79
2022/07/01 00:28:50;;;;;;;6.35;3.67;;;;;;;;;;5013014;28;20042;-80
2022/07/01 00:31:18;;;;;;;4.10;3.50;;;;;;;;;;5008173;28;20119;-79
2022/07/01 00:33:45;;;;;;;5.57;3.97;;;;;;;;;;4996027;28;20163;-78
2022/07/01 00:36:12;;;;;;;5.13;3.70;;;;;;;;;;5012045;28;20045;-80
2022/07/01 00:38:40;;;;;;;4.20;3.75;;;;;;;;;;5010011;28;20052;-78
2022/07/01 00:41:07;;;;;;;9.25;3.35;;;;;;;;;;4991165;28;20088;-80
2022/07/01 00:43:36;;;;;;;4.65;3.90;;;;;;;;;;5011438;28;20543;-78
2022/07/01 00:46:27;;;;;;;7.18;3.58;;;;;;;;;;5011855;28;20119;-78
2022/07/01 00:48:56;;;;;;;4.05;3.55;;;;;;;;;;5023717;28;20037;-79
2022/07/01 00:51:24;;;;;;;4.10;3.70;;;;;;;;;;5013882;28;20050;-78
2022/07/01 00:53:51;;;;;;;5.45;3.42;;;;;;;;;;5012277;28;20105;-80
2022/07/01 00:56:20;;;;;;;7.40;3.72;;;;;;;;;;5012473;28;20042;-80
2022/07/01 00:58:48;;;;;;;7.57;3.92;;;;;;;;;;5011273;28;20041;-80
2022/07/01 01:01:15;;;;;;;4.20;3.20;;;;;;;;;;5024833;28;20132;-78
2022/07/01 01:03:43;;;;;;;3.95;3.60;;;;;;;;;;5007400;28;20077;-77
2022/07/01 01:06:10;;;;;;;6.35;3.55;;;;;;;;;;4994803;28;20142;-80
2022/07/01 01:08:38;;;;;;;5.22;3.50;;;;;;;;;;5010669;28;20050;-80
2022/07/01 01:11:06;;;;;;;4.13;3.60;;;;;;;;;;5009084;28;20148;-80
2022/07/01 01:13:33;;;;;;;6.97;3.30;;;;;;;;;;4995381;28;20556;-78
2022/07/01 01:16:01;;;;;;;5.20;3.70;;;;;;;;;;5017037;28;20099;-79
2022/07/01 01:18:29;;;;;;;9.80;3.70;;;;;;;;;;5013433;28;20731;-79
2022/07/01 01:20:56;;;;;;;3.97;3.55;;;;;;;;;;5013461;28;20287;-78
2022/07/01 01:23:24;;;;;;;3.55;3.20;;;;;;;;;;5015460;28;20461;-78
2022/07/01 01:25:51;;;;;;;6.95;3.42;;;;;;;;;;5013978;28;22039;-80
2022/07/01 01:28:18;;;;;;;3.55;3.28;;;;;;;;;;5013325;28;20041;-78
2022/07/01 01:30:46;;;;;;;7.07;3.45;;;;;;;;;;5014047;28;20045;-78
2022/07/01 01:33:13;;;;;;;6.32;3.60;;;;;;;;;;5014822;28;20318;-80
2022/07/01 01:35:41;;;;;;;5.50;3.55;;;;;;;;;;5012878;28;20387;-80
2022/07/01 01:38:08;;;;;;;4.30;3.17;;;;;;;;;;5013927;28;20400;-78
2022/07/01 01:40:35;;;;;;;3.60;3.13;;;;;;;;;;4998874;28;20072;-79
2022/07/01 01:43:03;;;;;;;3.67;2.92;;;;;;;;;;5014823;28;20079;-78
2022/07/01 01:45:30;;;;;;;6.43;2.80;;;;;;;;;;5016269;28;20049;-80
2022/07/01 01:47:58;;;;;;;3.42;3.10;;;;;;;;;;5015788;28;20052;-80
2022/07/01 01:50:25;;;;;;;4.50;2.80;;;;;;;;;;5018315;28;20244;-78
2022/07/01 01:52:52;;;;;;;6.78;2.47;;;;;;;;;;5014199;28;20065;-80
2022/07/01 01:55:20;;;;;;;6.82;2.63;;;;;;;;;;5015201;28;20504;-78
2022/07/01 01:57:47;;;;;;;7.50;3.13;;;;;;;;;;5030446;28;20045;-79
2022/07/01 02:00:14;;;;;;;2.90;2.70;;;;;;;;;;5012475;28;20358;-78
2022/07/01 02:02:42;;;;;;;7.93;2.70;;;;;;;;;;5012269;28;20076;-80
2022/07/01 02:05:11;;;;;;;4.18;3.05;;;;;;;;;;5015744;28;20616;-79
2022/07/01 02:07:38;;;;;;;3.78;2.60;;;;;;;;;;5012886;28;20128;-79
2022/07/01 02:10:06;;;;;;;5.80;2.50;;;;;;;;;;5012666;28;20072;-77
2022/07/01 02:12:34;;;;;;;2.83;2.22;;;;;;;;;;5011876;28;20493;-80
2022/07/01 02:15:01;;;;;;;5.30;2.15;;;;;;;;;;5051589;23;20054;-76
2022/07/01 02:17:29;;;;;;;3.85;2.35;;;;;;;;;;5014352;28;20047;-75
2022/07/01 02:19:56;;;;;;;3.28;2.97;;;;;;;;;;5015754;28;20056;-76
2022/07/01 02:22:23;;;;;;;4.47;2.60;;;;;;;;;;5015360;28;20088;-76
2022/07/01 02:24:51;;;;;;;2.67;2.40;;;;;;;;;;5016019;28;20041;-76
2022/07/01 02:27:18;;;;;;;6.35;2.50;;;;;;;;;;5027756;28;20131;-77
2022/07/01 02:29:46;;;;;;;4.50;2.38;;;;;;;;;;5014548;28;20045;-76
2022/07/01 02:32:13;;;;;;;3.85;2.40;;;;;;;;;;5013445;28;20445;-77
2022/07/01 02:34:41;;;;;;;3.55;2.35;;;;;;;;;;5013631;28;20049;-75
2022/07/01 02:37:09;;;;;;;2.33;2.10;;;;;;;;;;5011923;28;20077;-77
2022/07/01 02:39:36;;;;;;;4.38;2.65;;;;;;;;;;5015888;28;20041;-77
2022/07/01 02:42:26;;;;;;;4.07;2.40;;;;;;;;;;5029088;28;20049;-75
2022/07/01 02:44:51;;;;;;;2.30;2.20;;;;;;;;;;5016257;28;20072;-75
2022/07/01 02:47:19;;;;;;;6.18;2.60;;;;;;;;;;5013352;28;20045;-77
2022/07/01 02:49:46;;;;;;;4.95;2.50;;;;;;;;;;5017184;28;20042;-76
2022/07/01 02:52:15;;;;;;;3.78;2.40;;;;;;;;;;5015936;28;20375;-76
2022/07/01 02:54:42;;;;;;;2.60;2.40;;;;;;;;;;5017658;28;20033;-75
2022/07/01 02:57:10;;;;;;;2.53;2.22;;;;;;;;;;5028565;28;20417;-78
2022/07/01 02:59:37;;;;;;;2.85;2.55;;;;;;;;;;5014898;28;20049;-77
2022/07/01 03:02:05;;;;;;;3.10;2.10;;;;;;;;;;5015805;28;20041;-76
2022/07/01 03:04:32;;;;;;;2.90;2.60;;;;;;;;;;5012324;28;20349;-76
2022/07/01 03:07:00;;;;;;;3.63;2.60;;;;;;;;;;5014874;28;20164;-76
2022/07/01 03:09:27;;;;;;;4.38;2.40;;;;;;;;;;5014432;28;20073;-77
2022/07/01 03:11:55;;;;;;;3.08;2.40;;;;;;;;;;5022320;28;20051;-76
2022/07/01 03:14:22;;;;;;;7.05;3.00;;;;;;;;;;5030279;28;20037;-77
2022/07/01 03:16:49;;;;;;;2.22;2.03;;;;;;;;;;5026299;28;20061;-78
2022/07/01 03:19:17;;;;;;;2.67;2.08;;;;;;;;;;5026175;28;20476;-78
2022/07/01 03:21:44;;;;;;;4.75;1.98;;;;;;;;;;5028225;28;20037;-77
2022/07/01 03:24:11;;;;;;;3.38;1.80;;;;;;;;;;5021736;28;20319;-77
2022/07/01 03:26:39;;;;;;;3.40;2.10;;;;;;;;;;5022752;28;20131;-77
2022/07/01 03:29:06;;;;;;;2.25;1.80;;;;;;;;;;5035514;28;20203;-76
2022/07/01 03:31:34;;;;;;;2.38;1.60;;;;;;;;;;5025806;28;20160;-77
2022/07/01 03:34:01;;;;;;;4.57;1.88;;;;;;;;;;5023630;28;20037;-77
2022/07/01 03:36:29;;;;;;;6.10;1.98;;;;;;;;;;5023406;28;20063;-75
2022/07/01 03:38:57;;;;;;;4.63;2.30;;;;;;;;;;5025636;28;20486;-76
2022/07/01 03:41:24;;;;;;;2.92;2.03;;;;;;;;;;5027164;28;20060;-77
2022/07/01 03:43:52;;;;;;;6.88;2.17;;;;;;;;;;5027598;28;20048;-77
2022/07/01 03:46:19;;;;;;;1.88;1.77;;;;;;;;;;5028427;28;20041;-76
2022/07/01 03:48:46;;;;;;;1.92;1.70;;;;;;;;;;5021273;28;20072;-77
2022/07/01 03:51:14;;;;;;;2.58;2.00;;;;;;;;;;5026569;28;20047;-77
2022/07/01 03:56:27;;;;;;;2.22;1.73;;;;;;;;;;5023852;28;20121;-76
2022/07/01 03:58:55;;;;;;;4.88;2.00;;;;;;;;;;5026208;28;20042;-77
2022/07/01 04:01:22;;;;;;;3.30;2.22;;;;;;;;;;5027981;28;20092;-75
2022/07/01 04:03:49;;;;;;;3.63;2.08;;;;;;;;;;5027144;28;20244;-77
2022/07/01 04:06:17;;;;;;;5.75;2.10;;;;;;;;;;5026932;28;20041;-77
2022/07/01 04:08:45;;;;;;;2.05;1.90;;;;;;;;;;5026340;28;20054;-77
2022/07/01 04:11:12;;;;;;;3.97;2.17;;;;;;;;;;5028153;28;20841;-75
2022/07/01 04:13:40;;;;;;;5.40;1.90;;;;;;;;;;5023729;28;20052;-77
2022/07/01 04:16:07;;;;;;;3.00;1.80;;;;;;;;;;5024490;28;20498;-76
2022/07/01 04:18:35;;;;;;;6.38;2.10;;;;;;;;;;5022634;28;20088;-75
2022/07/01 04:23:49;;;;;;;3.95;1.83;;;;;;;;;;5022333;28;20041;-76
2022/07/01 04:26:16;;;;;;;2.00;1.90;;;;;;;;;;5020279;28;20050;-77
2022/07/01 04:29:04;;;;;;;4.30;1.95;;;;;;;;;;5026156;28;20038;-76
2022/07/01 04:31:31;;;;;;;1.83;1.73;;;;;;;;;;5021471;28;20049;-75
2022/07/01 04:33:59;;;;;;;4.90;2.22;;;;;;;;;;5024938;28;20566;-77
2022/07/01 04:36:26;;;;;;;6.38;2.20;;;;;;;;;;5020407;28;20115;-76
2022/07/01 04:38:54;;;;;;;2.63;2.00;;;;;;;;;;5020033;28;20049;-76
2022/07/01 04:44:07;;;;;;;2.97;2.15;;;;;;;;;;5042685;28;20042;-76
2022/07/01 04:46:35;;;;;;;2.20;2.00;;;;;;;;;;5021688;28;20195;-77
2022/07/01 04:49:03;;;;;;;2.80;2.00;;;;;;;;;;5039463;28;20052;-77
2022/07/01 04:51:30;;;;;;;4.93;2.00;;;;;;;;;;5026915;28;20557;-77
2022/07/01 04:53:58;;;;;;;3.75;1.92;;;;;;;;;;5040313;28;20037;-77
2022/07/01 04:56:28;;;;;;;2.55;1.90;;;;;;;;;;5025837;28;20047;-76
2022/07/01 04:58:56;;;;;;;2.90;1.60;;;;;;;;;;5028563;28;20056;-77
2022/07/01 05:01:24;;;;;;;2.30;1.80;;;;;;;;;;5020855;28;20413;-76
2022/07/01 05:03:51;;;;;;;6.45;2.13;;;;;;;;;;5040226;28;20491;-77
2022/07/01 05:06:19;;;;;;;1.90;1.58;;;;;;;;;;5027715;28;20045;-76
2022/07/01 05:08:47;;;;;;;2.63;1.85;;;;;;;;;;5024428;28;20217;-76
2022/07/01 05:11:14;;;;;;;3.20;1.90;;;;;;;;;;5027645;28;20128;-77
2022/07/01 05:13:42;;;;;;;1.95;1.77;;;;;;;;;;5026517;28;20479;-76
2022/07/01 05:16:09;;;;;;;7.85;2.70;;;;;;;;;;5029212;28;20041;-77
2022/07/01 05:24:10;;;;;;;1.38;1.38;;;;;;;;;;5020560;28;20061;-77
2022/07/01 05:26:38;;;;;;;3.10;1.80;;;;;;;;;;5020007;28;20064;-77
2022/07/01 05:29:05;;;;;;;2.60;1.92;;;;;;;;;;5033482;28;20513;-77
2022/07/01 05:31:33;;;;;;;2.28;1.90;;;;;;;;;;5029456;28;20047;-76
2022/07/01 05:34:01;;;;;;;3.13;1.50;;;;;;;;;;5029896;28;20046;-76
2022/07/01 05:36:31;;;;;;;2.37;1.60;;;;;;;;;;5026919;28;20037;-75
2022/07/01 05:38:59;;;;;;;3.25;1.80;;;;;;;;;;5028562;28;20149;-76
2022/07/01 05:41:26;;;;;;;2.30;1.85;;;;;;;;;;5035826;28;20037;-78
2022/07/01 05:43:54;;;;;;;2.10;1.63;;;;;;;;;;5026959;28;20041;-77
2022/07/01 05:46:21;;;;;;;2.92;2.00;;;;;;;;;;5037564;28;20065;-76
2022/07/01 05:48:49;;;;;;;4.22;2.10;;;;;;;;;;5032498;28;20113;-76
2022/07/01 05:51:16;;;;;;;2.90;1.70;;;;;;;;;;5041551;28;20038;-78
2022/07/01 05:53:44;;;;;;;4.50;1.70;;;;;;;;;;5038160;28;20541;-78
2022/07/01 05:56:11;;;;;;;1.88;1.58;;;;;;;;;;5036413;28;20041;-76
2022/07/01 05:59:22;;;;;;;;;;;;;;;;;;;;;
2022/07/01 06:02:47;;;;;;;2.53;1.67;;;;;;;;;;5029612;28;20080;-87
2022/07/01 06:05:42;;;;;;;1.90;1.50;;;;;;;;;;5034267;28;20053;-87
2022/07/01 06:09:38;;;;;;;2.42;1.40;;;;;;;;;;5020469;28;20045;-87
2022/07/01 06:12:21;;;;;;;4.03;1.48;;;;;;;;;;5084792;22;20064;-79
2022/07/01 06:14:48;;;;;;;5.78;1.67;;;;;;;;;;5029793;28;20072;-78
2022/07/01 06:17:16;;;;;;;1.50;1.40;;;;;;;;;;5026743;28;20041;-78
2022/07/01 06:19:44;;;;;;;1.38;1.27;;;;;;;;;;5033945;28;20095;-78
2022/07/01 06:22:16;;;;;;;1.45;1.30;;;;;;;;;;5027820;28;20379;-78
2022/07/01 06:24:44;;;;;;;1.80;1.70;;;;;;;;;;5023990;28;20055;-79
2022/07/01 06:27:12;;;;;;;1.48;1.38;;;;;;;;;;5027265;28;20114;-79
2022/07/01 06:29:39;;;;;;;1.90;1.33;;;;;;;;;;5027357;28;20042;-79
2022/07/01 06:32:07;;;;;;;1.67;1.23;;;;;;;;;;5027542;28;20049;-79
2022/07/01 06:34:35;;;;;;;1.33;1.27;;;;;;;;;;5019662;28;20064;-78
2022/07/01 06:37:03;;;;;;;1.60;1.50;;;;;;;;;;5026714;28;20468;-79
2022/07/01 06:39:31;;;;;;;3.35;1.58;;;;;;;;;;5023097;28;20553;-78
2022/07/01 06:41:58;;;;;;;1.80;1.70;;;;;;;;;;5044961;28;20077;-78
2022/07/01 06:44:26;;;;;;;1.60;1.50;;;;;;;;;;5024424;28;20045;-79
2022/07/01 06:46:53;;;;;;;2.10;1.40;;;;;;;;;;5019409;28;20049;-79
2022/07/01 06:49:21;;;;;;;2.20;1.40;;;;;;;;;;5027939;28;20432;-79
2022/07/01 06:51:49;;;;;;;2.50;1.38;;;;;;;;;;5026819;28;20076;-79
2022/07/01 06:54:17;;;;;;;2.22;1.25;;;;;;;;;;5026824;28;20141;-78
2022/07/01 06:56:45;;;;;;;4.47;1.55;;;;;;;;;;5022803;28;20050;-79
2022/07/01 06:59:14;;;;;;;4.40;1.58;;;;;;;;;;5017378;28;20057;-78
2022/07/01 07:01:42;;;;;;;1.60;1.42;;;;;;;;;;5019199;28;20495;-79
2022/07/01 07:04:09;;;;;;;3.72;1.33;;;;;;;;;;5026626;28;20048;-78
2022/07/01 07:06:37;;;;;;;1.63;1.40;;;;;;;;;;5021049;28;20041;-80
2022/07/01 07:09:04;;;;;;;1.50;1.40;;;;;;;;;;5022045;28;20053;-79
2022/07/01 07:11:32;;;;;;;1.95;1.42;;;;;;;;;;5027811;28;20041;-78
2022/07/01 07:13:59;;;;;;;1.75;1.20;;;;;;;;;;5029024;28;20104;-78
2022/07/01 07:16:27;;;;;;;1.73;1.40;;;;;;;;;;5032208;28;20544;-79
2022/07/01 07:18:55;;;;;;;2.35;1.38;;;;;;;;;;5051550;28;20071;-78
2022/07/01 07:21:22;;;;;;;4.25;1.50;;;;;;;;;;5044820;28;20065;-78
2022/07/01 07:23:49;;;;;;;1.83;1.60;;;;;;;;;;5040936;28;20052;-78
2022/07/01 07:26:17;;;;;;;1.70;1.60;;;;;;;;;;5040356;28;20080;-79
2022/07/01 07:28:44;;;;;;;1.92;1.60;;;;;;;;;;5030730;28;20046;-78
2022/07/01 07:31:12;;;;;;;1.35;1.23;;;;;;;;;;5030466;28;20096;-79
2022/07/01 07:33:39;;;;;;;1.92;1.75;;;;;;;;;;5030077;28;20050;-79
2022/07/01 07:36:07;;;;;;;7.15;2.10;;;;;;;;;;5029862;28;20488;-79
2022/07/01 07:38:37;;;;;;;3.13;2.00;;;;;;;;;;5028028;28;20133;-78
2022/07/01 07:41:04;;;;;;;2.92;1.70;;;;;;;;;;5027803;28;20501;-78
2022/07/01 07:43:32;;;;;;;3.35;2.08;;;;;;;;;;5031984;28;20053;-78
2022/07/01 07:45:59;;;;;;;1.88;1.77;;;;;;;;;;5029698;28;20049;-79
2022/07/01 07:48:27;;;;;;;2.47;1.58;;;;;;;;;;5031630;28;20473;-78
2022/07/01 07:50:54;;;;;;;3.58;1.55;;;;;;;;;;5030080;28;20041;-78
2022/07/01 07:53:21;;;;;;;13.13;1.90;;;;;;;;;;5030204;28;20440;-78
2022/07/01 07:55:49;;;;;;;2.28;1.50;;;;;;;;;;5026165;28;20081;-78
2022/07/01 07:58:17;;;;;;;4.35;1.80;;;;;;;;;;5038824;28;20073;-79
2022/07/01 08:00:44;;;;;;;1.63;1.40;;;;;;;;;;5041103;28;20061;-79
2022/07/01 08:03:12;;;;;;;2.88;1.50;;;;;;;;;;5029165;28;20058;-79
2022/07/01 08:05:39;;;;;;;1.83;1.45;;;;;;;;;;5029431;28;20041;-79
2022/07/01 08:08:07;;;;;;;2.70;1.50;;;;;;;;;;5027693;28;20049;-79
2022/07/01 08:10:34;;;;;;;4.82;1.40;;;;;;;;;;5044772;28;20137;-79
2022/07/01 08:13:04;;;;;;;5.43;1.60;;;;;;;;;;5038729;28;20033;-79
2022/07/01 08:15:32;;;;;;;2.42;2.10;;;;;;;;;;5033585;28;20052;-78
2022/07/01 08:17:59;;;;;;;4.30;1.80;;;;;;;;;;5032825;28;20045;-79
2022/07/01 08:20:27;;;;;;;3.60;1.48;;;;;;;;;;5033918;28;20081;-79
2022/07/01 08:22:54;;;;;;;1.65;1.42;;;;;;;;;;5037334;28;20044;-79
2022/07/01 08:25:23;;;;;;;3.00;1.70;;;;;;;;;;5045954;28;20150;-79
2022/07/01 08:27:50;;;;;;;2.25;2.00;;;;;;;;;;5025812;28;20140;-79
2022/07/01 08:30:18;;;;;;;1.65;1.45;;;;;;;;;;5032158;28;20083;-79
2022/07/01 08:32:46;;;;;;;1.50;1.40;;;;;;;;;;5033056;28;20647;-79
2022/07/01 08:35:13;;;;;;;3.83;1.67;;;;;;;;;;5027686;28;20049;-78
2022/07/01 08:37:41;;;;;;;1.50;1.40;;;;;;;;;;5027411;28;20053;-78
2022/07/01 08:40:09;;;;;;;2.78;1.65;;;;;;;;;;5027986;28;20067;-78
2022/07/01 08:42:36;;;;;;;3.25;1.60;;;;;;;;;;5027546;28;20520;-79
2022/07/01 08:45:04;;;;;;;2.65;1.50;;;;;;;;;;5035482;28;20479;-79
2022/07/01 08:47:31;;;;;;;1.48;1.38;;;;;;;;;;5034159;28;20045;-79
2022/07/01 08:50:02;;;;;;;1.48;1.38;;;;;;;;;;5035904;28;20050;-79
2022/07/01 08:52:29;;;;;;;3.20;1.40;;;;;;;;;;4994274;28;20059;-78
2022/07/01 08:54:57;;;;;;;2.38;1.40;;;;;;;;;;5034292;28;20575;-79
2022/07/01 08:57:24;;;;;;;7.18;1.50;;;;;;;;;;5054405;28;20103;-78
2022/07/01 09:00:06;;;;;;;1.45;1.33;;;;;;;;;;5025475;28;20495;-78
2022/07/01 09:02:54;;;;;;;1.35;1.25;;;;;;;;;;5021500;28;20156;-79
2022/07/01 09:05:22;;;;;;;3.63;1.40;;;;;;;;;;5020800;28;20061;-80
2022/07/01 09:07:55;;;;;;;3.45;1.50;;;;;;;;;;5038392;28;20045;-79
2022/07/01 09:10:23;;;;;;;2.10;1.50;;;;;;;;;;5032265;28;20049;-79
2022/07/01 09:12:50;;;;;;;1.50;1.40;;;;;;;;;;5029331;28;20041;-80
2022/07/01 09:15:21;;;;;;;2.22;1.70;;;;;;;;;;5032814;28;20057;-79
2022/07/01 09:17:48;;;;;;;4.13;1.60;;;;;;;;;;5051468;28;20128;-79
2022/07/01 09:20:33;;;;;;;1.55;1.40;;;;;;;;;;5022697;28;20041;-79
2022/07/01 09:23:05;;;;;;;1.95;1.33;;;;;;;;;;5040641;28;20076;-80
2022/07/01 09:25:34;;;;;;;3.80;1.40;;;;;;;;;;5030724;28;20049;-79
2022/07/01 09:28:04;;;;;;;1.13;1.13;;;;;;;;;;5021333;28;20038;-79
2022/07/01 09:30:33;;;;;;;2.72;1.83;;;;;;;;;;5017806;28;20100;-79
2022/07/01 09:33:06;;;;;;;3.60;1.65;;;;;;;;;;5026088;28;20478;-80
2022/07/01 09:35:35;;;;;;;1.95;1.70;;;;;;;;;;5038483;28;20528;-80
2022/07/01 09:38:05;;;;;;;2.47;1.48;;;;;;;;;;5030836;28;20045;-80
2022/07/01 09:40:51;;;;;;;2.63;1.48;;;;;;;;;;5033530;28;20281;-79
2022/07/01 09:43:38;;;;;;;2.00;1.83;;;;;;;;;;5051123;28;20042;-79
2022/07/01 09:46:08;;;;;;;1.55;1.45;;;;;;;;;;5035353;28;20041;-79
2022/07/01 09:48:35;;;;;;;3.38;1.50;;;;;;;;;;5056729;28;20045;-79
2022/07/01 09:51:04;;;;;;;1.70;1.60;;;;;;;;;;5030970;28;20073;-78
2022/07/01 09:53:38;;;;;;;1.88;1.70;;;;;;;;;;5028194;28;20512;-79
2022/07/01 09:56:05;;;;;;;2.63;1.40;;;;;;;;;;5029801;28;20408;-79
2022/07/01 09:58:34;;;;;;;1.42;1.40;;;;;;;;;;5029074;28;20087;-80
2022/07/01 10:01:03;;;;;;;2.53;1.70;;;;;;;;;;5040334;28;20384;-80
2022/07/01 10:03:32;;;;;;;1.60;1.20;;;;;;;;;;5034437;28;20471;-81
2022/07/01 10:06:15;;;;;;;1.33;1.23;;;;;;;;;;5028706;28;20046;-79
2022/07/01 10:08:56;;;;;;;2.15;1.50;;;;;;;;;;5031611;28;20037;-79
2022/07/01 10:11:42;;;;;;;3.17;1.40;;;;;;;;;;5035513;28;20417;-80
2022/07/01 10:14:12;;;;;;;2.35;1.45;;;;;;;;;;5029045;28;20040;-79
2022/07/01 10:16:39;;;;;;;2.05;1.50;;;;;;;;;;5031022;28;20148;-80
2022/07/01 10:19:26;;;;;;;1.60;1.42;;;;;;;;;;5049678;28;20498;-79
2022/07/01 10:21:56;;;;;;;5.45;1.30;;;;;;;;;;5013100;28;20041;-80
2022/07/01 10:24:25;;;;;;;1.38;1.27;;;;;;;;;;5026404;28;20049;-79
2022/07/01 10:26:53;;;;;;;3.17;1.25;;;;;;;;;;5065566;28;20074;-78
2022/07/01 10:29:28;;;;;;;1.52;1.30;;;;;;;;;;5044749;28;20049;-79
2022/07/01 10:32:00;;;;;;;1.33;1.13;;;;;;;;;;5058199;28;20047;-79
2022/07/01 10:34:34;;;;;;;3.20;1.25;;;;;;;;;;5049757;28;20046;-78
2022/07/01 10:37:09;;;;;;;1.35;1.25;;;;;;;;;;5030213;28;20076;-79
2022/07/01 10:39:57;;;;;;;4.82;1.40;;;;;;;;;;5030950;28;20148;-80
2022/07/01 10:42:32;;;;;;;1.40;1.30;;;;;;;;;;5031900;28;20156;-80
2022/07/01 10:45:00;;;;;;;2.15;1.30;;;;;;;;;;5030407;28;20059;-80
2022/07/01 10:47:27;;;;;;;1.55;1.38;;;;;;;;;;5028490;28;20049;-80
2022/07/01 10:50:16;;;;;;;2.60;1.30;;;;;;;;;;5023070;28;20059;-80
2022/07/01 10:53:03;;;;;;;1.48;1.35;;;;;;;;;;5033174;28;20535;-80
2022/07/01 10:55:41;;;;;;;1.10;1.10;;;;;;;;;;5040887;28;20463;-80
2022/07/01 10:58:08;;;;;;;4.38;1.45;;;;;;;;;;5050023;28;20140;-80
2022/07/01 11:00:36;;;;;;;1.92;1.40;;;;;;;;;;5028334;28;20038;-80
2022/07/01 11:03:21;;;;;;;2.20;1.23;;;;;;;;;;5037245;28;20405;-80
2022/07/01 11:05:50;;;;;;;2.97;1.23;;;;;;;;;;5048276;28;20512;-79
2022/07/01 11:08:17;;;;;;;1.20;0.95;;;;;;;;;;5030923;28;20060;-80
2022/07/01 11:10:51;;;;;;;2.65;1.40;;;;;;;;;;5038366;28;20132;-80
2022/07/01 11:13:19;;;;;;;2.22;1.08;;;;;;;;;;5028916;28;20055;-79
2022/07/01 11:15:47;;;;;;;1.38;1.30;;;;;;;;;;5029410;28;20053;-78
2022/07/01 11:18:16;;;;;;;2.53;1.20;;;;;;;;;;5028484;28;20045;-77
2022/07/01 11:20:43;;;;;;;1.05;1.05;;;;;;;;;;5016945;28;20045;-80
2022/07/01 11:23:11;;;;;;;2.15;1.38;;;;;;;;;;5047730;28;20061;-80
2022/07/01 11:25:39;;;;;;;1.20;1.10;;;;;;;;;;5039675;28;20057;-80
2022/07/01 11:28:06;;;;;;;1.02;1.00;;;;;;;;;;5020606;28;20055;-81
2022/07/01 11:30:34;;;;;;;2.90;1.10;;;;;;;;;;5017512;28;20525;-81
2022/07/01 11:33:01;;;;;;;0.80;0.80;;;;;;;;;;5039340;28;20045;-80
2022/07/01 11:41:07;;;;;;;2.30;0.80;;;;;;;;;;5035508;28;20037;-80
2022/07/01 11:43:35;;;;;;;3.13;0.90;;;;;;;;;;5035137;28;20037;-80
2022/07/01 11:46:05;;;;;;;2.67;1.17;;;;;;;;;;5041652;28;20049;-80
2022/07/01 11:48:36;;;;;;;1.27;0.98;;;;;;;;;;5030655;28;20529;-80
2022/07/01 11:51:11;;;;;;;3.90;1.35;;;;;;;;;;5027908;28;20044;-80
2022/07/01 11:53:43;;;;;;;2.03;1.08;;;;;;;;;;5036656;28;20045;-80
2022/07/01 11:56:11;;;;;;;4.80;1.90;;;;;;;;;;5028232;28;20140;-80
2022/07/01 11:58:45;;;;;;;1.85;1.08;;;;;;;;;;5030507;28;20044;-80
2022/07/01 12:01:20;;;;;;;1.27;0.88;;;;;;;;;;4997988;28;20045;-81
2022/07/01 12:03:47;;;;;;;1.00;1.00;;;;;;;;;;5041900;28;20136;-80
2022/07/01 12:06:17;;;;;;;1.48;1.00;;;;;;;;;;5029181;28;20060;-80
2022/07/01 12:08:44;;;;;;;1.27;0.98;;;;;;;;;;5023325;28;20073;-80
2022/07/01 12:11:12;;;;;;;2.60;1.10;;;;;;;;;;5024687;28;20088;-80
2022/07/01 12:13:40;;;;;;;1.15;0.80;;;;;;;;;;5020661;22;20038;-77
2022/07/01 12:16:12;;;;;;;2.97;1.10;;;;;;;;;;5002510;28;20046;-77
2022/07/01 12:18:39;;;;;;;4.97;1.00;;;;;;;;;;5003831;28;20040;-77
2022/07/01 12:21:07;;;;;;;1.75;1.10;;;;;;;;;;5002136;28;20050;-77
2022/07/01 12:23:36;;;;;;;1.40;1.30;;;;;;;;;;5005016;28;20053;-77
2022/07/01 12:26:05;;;;;;;4.07;1.52;;;;;;;;;;5006403;28;20091;-77
2022/07/01 12:28:43;;;;;;;1.77;1.67;;;;;;;;;;5000616;28;20046;-77
2022/07/01 12:31:11;;;;;;;1.90;1.80;;;;;;;;;;4990101;28;20042;-78
2022/07/01 12:33:39;;;;;;;3.42;2.05;;;;;;;;;;5004937;28;20543;-77
2022/07/01 12:36:07;;;;;;;1.90;1.80;;;;;;;;;;5006125;28;20048;-77
2022/07/01 12:38:35;;;;;;;1.95;1.50;;;;;;;;;;4997439;28;20132;-77
2022/07/01 12:41:02;;;;;;;3.47;1.10;;;;;;;;;;5003746;28;20107;-77
2022/07/01 12:43:34;;;;;;;1.05;0.95;;;;;;;;;;4990152;28;20057;-77
2022/07/01 12:46:01;;;;;;;;;;;;;;;;;;4984918;28;20133;-77
2022/07/01 12:48:28;;;;;;;2.22;1.10;;;;;;;;;;4986237;28;19953;-77
2022/07/01 12:50:57;;;;;;;1.30;1.20;;;;;;;;;;4996780;28;20070;-77
2022/07/01 12:53:25;;;;;;;1.25;1.08;;;;;;;;;;4987474;28;20054;-77
2022/07/01 12:55:55;;;;;;;2.55;1.10;;;;;;;;;;4986858;28;20168;-77
2022/07/01 12:58:23;;;;;;;1.60;1.50;;;;;;;;;;4994089;28;20034;-77
2022/07/01 13:00:55;;;;;;;1.42;0.85;;;;;;;;;;5000997;28;20038;-77
2022/07/01 13:03:24;;;;;;;0.93;0.80;;;;;;;;;;4992912;28;20076;-77
2022/07/01 13:05:52;;;;;;;1.02;0.80;;;;;;;;;;4993813;28;20053;-77
2022/07/01 13:08:20;;;;;;;0.50;0.50;;;;;;;;;;4988576;28;20100;-77
2022/07/01 13:10:48;;;;;;;2.40;1.15;;;;;;;;;;4996815;28;20513;-77
2022/07/01 13:13:19;;;;;;;1.65;0.60;;;;;;;;;;4990656;28;20097;-77
2022/07/01 13:15:46;;;;;;;1.90;0.57;;;;;;;;;;5003556;28;20030;-77
2022/07/01 13:18:14;;;;;;;0.70;0.70;;;;;;;;;;4992115;28;20073;-77
2022/07/01 13:20:43;;;;;;;0.68;0.68;;;;;;;;;;5000909;28;20133;-78
2022/07/01 13:23:10;;;;;;;0.70;0.70;;;;;;;;;;5004130;28;20056;-77
2022/07/01 13:25:38;;;;;;;0.57;0.52;;;;;;;;;;4992959;28;20455;-77
2022/07/01 13:28:06;;;;;;;1.65;0.60;;;;;;;;;;4995279;28;20056;-76
2022/07/01 13:30:35;;;;;;;1.35;0.77;;;;;;;;;;4996098;28;20050;-77
2022/07/01 13:33:03;;;;;;;1.92;0.60;;;;;;;;;;4995875;28;20065;-77
2022/07/01 13:35:30;;;;;;;0.75;0.75;;;;;;;;;;4995219;28;20069;-77
2022/07/01 13:37:58;;;;;;;2.90;0.70;;;;;;;;;;5000151;28;20121;-77
2022/07/01 13:40:25;;;;;;;7.20;0.80;;;;;;;;;;4999469;28;20049;-77
2022/07/01 13:42:52;;;;;;;1.80;0.90;;;;;;;;;;4998336;28;20453;-77
2022/07/01 13:45:20;;;;;;;1.65;0.80;;;;;;;;;;5006386;28;20041;-77
2022/07/01 13:47:47;;;;;;;1.00;1.00;;;;;;;;;;4996812;28;20535;-77
2022/07/01 13:50:18;;;;;;;0.90;0.90;;;;;;;;;;5003118;28;20129;-77
2022/07/01 13:52:47;;;;;;;1.95;0.90;;;;;;;;;;4999363;28;20131;-77
2022/07/01 13:55:18;;;;;;;1.00;1.00;;;;;;;;;;4999550;28;20121;-77
2022/07/01 13:57:46;;;;;;;2.13;1.20;;;;;;;;;;4998165;28;20472;-77
2022/07/01 14:00:14;;;;;;;0.98;0.98;;;;;;;;;;5002034;28;20038;-77
2022/07/01 14:02:41;;;;;;;1.10;1.10;;;;;;;;;;5000695;28;20042;-77
2022/07/01 14:05:09;;;;;;;1.58;1.00;;;;;;;;;;4991522;28;20046;-77
2022/07/01 14:07:36;;;;;;;1.55;1.10;;;;;;;;;;4993784;28;20080;-78
2022/07/01 14:10:04;;;;;;;1.17;0.82;;;;;;;;;;4997553;28;20097;-77
2022/07/01 14:12:31;;;;;;;0.90;0.90;;;;;;;;;;4991027;28;20801;-77
2022/07/01 14:14:59;;;;;;;0.70;0.70;;;;;;;;;;4979179;28;20047;-78
2022/07/01 14:17:27;;;;;;;1.17;0.80;;;;;;;;;;4959865;28;20046;-77
2022/07/01 14:19:56;;;;;;;0.60;0.60;;;;;;;;;;4996752;28;20038;-76
2022/07/01 14:22:25;;;;;;;0.68;0.68;;;;;;;;;;4996495;28;20034;-77
2022/07/01 14:24:56;;;;;;;4.18;0.75;;;;;;;;;;4994763;28;20525;-77
2022/07/01 14:27:23;;;;;;;0.57;0.57;;;;;;;;;;4992855;28;20406;-77
2022/07/01 14:29:50;;;;;;;4.32;0.60;;;;;;;;;;4989902;28;20064;-78
2022/07/01 14:32:27;;;;;;;4.28;0.70;;;;;;;;;;4992570;28;20205;-78
2022/07/01 14:34:56;;;;;;;3.40;0.70;;;;;;;;;;4977732;28;20950;-77
2022/07/01 14:37:24;;;;;;;0.60;0.60;;;;;;;;;;4991814;28;20046;-76
2022/07/01 14:39:55;;;;;;;3.00;0.50;;;;;;;;;;4991385;28;20034;-77
2022/07/01 14:42:24;;;;;;;2.70;0.50;;;;;;;;;;4997252;28;20056;-77
2022/07/01 14:44:55;;;;;;;0.50;0.50;;;;;;;;;;4989718;28;20081;-77
2022/07/01 14:47:23;;;;;;;1.00;0.60;;;;;;;;;;5004088;28;20044;-78
2022/07/01 14:49:53;;;;;;;0.55;0.43;;;;;;;;;;4989664;28;20659;-77
2022/07/01 14:52:22;;;;;;;1.75;1.33;;;;;;;;;;4995410;28;20046;-77
2022/07/01 14:54:50;;;;;;;2.03;0.80;;;;;;;;;;4993874;28;20100;-78
2022/07/01 14:57:17;;;;;;;2.97;0.80;;;;;;;;;;4993761;28;20124;-77
2022/07/01 14:59:45;;;;;;;5.82;0.90;;;;;;;;;;5000636;28;20052;-77
2022/07/01 15:02:12;;;;;;;1.35;0.80;;;;;;;;;;4997818;28;20053;-77
2022/07/01 15:04:40;;;;;;;3.10;0.90;;;;;;;;;;4996015;28;20038;-78
2022/07/01 15:07:08;;;;;;;3.47;1.13;;;;;;;;;;4998025;28;20125;-77
2022/07/01 15:09:38;;;;;;;4.55;0.98;;;;;;;;;;5003530;28;20088;-77
2022/07/01 15:12:06;;;;;;;7.43;2.03;;;;;;;;;;4999122;28;20076;-79
2022/07/01 15:14:33;;;;;;;10.38;3.28;;;;;;;;;;5006562;28;20138;-78
2022/07/01 15:17:03;;;;;;;53.95;3.53;;;;;;;;;;5004354;28;20045;-79